Time;durP1;ratioP1;P1;durP2;ratioP2;P2;SDS_P1;SDS_P2;PMS_P1;PMS_P2;Temp;Humidity;BMP_temperature;BMP_pressure;BME280_temperature;BME280_humidity;BME280_pressure;Samples;Min_cycle;Max_cycle;Signal;HPM_P1;HPM_P2
2022/01/29 00:00:12;;;;;;;34.00;19.10;;;;;;;-1.21;100.00;98573.52;1666208;86;20975;-68
2022/01/29 00:02:41;;;;;;;31.27;17.80;;;;;;;-1.22;100.00;98585.12;1665964;86;21027;-68
2022/01/29 00:05:12;;;;;;;32.00;18.10;;;;;;;-1.23;100.00;98576.80;1666210;86;21069;-69
2022/01/29 00:07:43;;;;;;;32.30;18.85;;;;;;;-1.23;100.00;98581.27;1666017;86;21015;-68
2022/01/29 00:10:11;;;;;;;30.00;17.53;;;;;;;-1.25;100.00;98577.91;1675332;85;21110;-68
2022/01/29 00:12:38;;;;;;;32.37;18.10;;;;;;;-1.24;100.00;98575.13;1677215;84;21057;-68
2022/01/29 00:15:07;;;;;;;30.37;17.40;;;;;;;-1.25;100.00;98571.28;1696199;83;21054;-67
2022/01/29 00:17:34;;;;;;;31.90;18.33;;;;;;;-1.28;100.00;98568.88;1696219;83;21030;-67
2022/01/29 00:20:01;;;;;;;32.87;18.60;;;;;;;-1.28;100.00;98567.55;1671618;86;21030;-68
2022/01/29 00:22:28;;;;;;;32.00;18.50;;;;;;;-1.30;100.00;98568.18;1696688;83;21568;-67
2022/01/29 00:27:26;;;;;;;31.77;18.60;;;;;;;-1.34;100.00;98568.44;1617052;87;21157;-68
2022/01/29 00:29:55;;;;;;;30.73;17.97;;;;;;;-1.38;100.00;98572.33;1639054;87;21160;-68
2022/01/29 00:32:22;;;;;;;32.73;18.37;;;;;;;-1.40;100.00;98563.67;1639104;87;21086;-68
2022/01/29 00:34:49;;;;;;;30.90;17.53;;;;;;;-1.41;100.00;98563.30;1639153;87;21082;-68
2022/01/29 00:37:16;;;;;;;31.00;17.53;;;;;;;-1.41;100.00;98563.80;1589425;89;21062;-69
2022/01/29 00:39:43;;;;;;;33.60;18.67;;;;;;;-1.44;100.00;98556.09;1588780;89;21046;-68
2022/01/29 00:42:10;;;;;;;32.33;18.20;;;;;;;-1.44;100.00;98558.25;1609729;89;21081;-68
2022/01/29 00:44:37;;;;;;;32.03;17.57;;;;;;;-1.43;100.00;98560.45;1609860;89;21085;-68
2022/01/29 00:47:04;;;;;;;33.67;18.90;;;;;;;-1.45;100.00;98555.73;1589493;89;21078;-69
2022/01/29 00:49:31;;;;;;;35.50;20.03;;;;;;;-1.45;100.00;98556.59;1589912;89;21097;-68
2022/01/29 00:51:58;;;;;;;34.10;19.20;;;;;;;-1.46;100.00;98554.07;1611315;89;21618;-68
2022/01/29 00:54:25;;;;;;;31.30;18.40;;;;;;;-1.49;100.00;98547.70;1590157;89;21106;-68
2022/01/29 00:56:52;;;;;;;34.13;18.77;;;;;;;-1.49;100.00;98547.20;1590131;89;21117;-68
2022/01/29 00:59:19;;;;;;;31.53;18.20;;;;;;;-1.47;100.00;98541.77;1590595;89;21106;-68
2022/01/29 01:01:46;;;;;;;32.80;19.00;;;;;;;-1.47;100.00;98540.45;1590008;89;21093;-68
2022/01/29 01:04:13;;;;;;;32.50;18.33;;;;;;;-1.48;100.00;98545.41;1611000;88;21074;-68
2022/01/29 01:06:40;;;;;;;34.43;19.30;;;;;;;-1.47;100.00;98538.66;1587402;90;21136;-68
2022/01/29 01:09:08;;;;;;;32.80;18.47;;;;;;;-1.46;100.00;98535.02;1565841;90;21139;-68
2022/01/29 01:11:36;;;;;;;31.67;17.80;;;;;;;-1.47;100.00;98528.05;1593432;89;21563;-69
2022/01/29 01:14:10;;;;;;;33.10;18.60;;;;;;;-1.47;100.00;98527.19;1614605;89;21058;-69
2022/01/29 01:16:37;;;;;;;31.17;17.47;;;;;;;-1.46;100.00;98520.44;1593641;89;21128;-69
2022/01/29 01:19:04;;;;;;;32.47;19.27;;;;;;;-1.45;100.00;98510.20;1614582;89;21622;-69
2022/01/29 01:21:31;;;;;;;31.20;17.60;;;;;;;-1.45;100.00;98513.31;1614736;89;21117;-69
2022/01/29 01:23:58;;;;;;;32.37;18.87;;;;;;;-1.45;100.00;98515.50;1618774;85;21056;-69
2022/01/29 01:26:25;;;;;;;29.20;17.07;;;;;;;-1.46;100.00;98515.13;1678520;85;21081;-67
2022/01/29 01:28:52;;;;;;;33.07;18.50;;;;;;;-1.43;100.00;98509.57;1678213;84;21010;-68
2022/01/29 01:31:19;;;;;;;32.97;18.73;;;;;;;-1.42;100.00;98497.14;1678269;85;21494;-68
2022/01/29 01:33:47;;;;;;;34.23;19.43;;;;;;;-1.42;100.00;98494.00;1678187;85;21107;-69
2022/01/29 01:36:18;;;;;;;32.20;18.03;;;;;;;-1.43;100.00;98493.66;1666848;85;21041;-68
2022/01/29 01:38:51;;;;;;;29.80;16.87;;;;;;;-1.41;100.00;98496.19;1673047;85;21029;-68
2022/01/29 01:41:20;;;;;;;31.43;18.37;;;;;;;-1.40;100.00;98481.47;1675311;86;21106;-69
2022/01/29 01:43:43;;;;;;;32.73;18.73;;;;;;;-1.40;100.00;98489.42;1653677;86;21045;-69
2022/01/29 01:46:11;;;;;;;31.63;19.03;;;;;;;-1.40;100.00;98484.13;1667747;85;21073;-68
2022/01/29 01:48:37;;;;;;;32.10;18.63;;;;;;;-1.39;100.00;98488.44;1666733;85;21022;-69
2022/01/29 01:51:05;;;;;;;30.40;16.87;;;;;;;-1.38;100.00;98486.16;1681428;85;21049;-68
2022/01/29 01:53:33;;;;;;;33.03;18.20;;;;;;;-1.37;100.00;98489.14;1680807;85;21027;-66
2022/01/29 01:56:00;;;;;;;31.10;18.50;;;;;;;-1.34;100.00;98481.42;1636768;85;21074;-69
2022/01/29 01:58:27;;;;;;;31.87;18.67;;;;;;;-1.31;100.00;98477.65;1659593;85;21042;-69
2022/01/29 02:00:55;;;;;;;31.07;18.37;;;;;;;-1.30;100.00;98478.02;1659978;85;21042;-69
2022/01/29 02:03:23;;;;;;;33.50;19.77;;;;;;;-1.29;100.00;98473.05;1680568;85;21082;-69
2022/01/29 02:05:50;;;;;;;30.73;17.30;;;;;;;-1.30;100.00;98474.87;1681055;85;21030;-68
2022/01/29 02:08:17;;;;;;;31.73;18.43;;;;;;;-1.29;100.00;98475.70;1637591;85;21514;-68
2022/01/29 02:10:46;;;;;;;29.00;16.63;;;;;;;-1.27;100.00;98474.61;1659608;85;21501;-68
2022/01/29 02:13:13;;;;;;;31.23;18.33;;;;;;;-1.26;100.00;98465.66;1688773;85;21027;-69
2022/01/29 02:15:41;;;;;;;32.53;18.47;;;;;;;-1.25;100.00;98459.89;1690980;85;21036;-69
2022/01/29 02:20:37;;;;;;;33.43;19.60;;;;;;;-1.22;100.00;98456.95;1659501;86;21022;-69
2022/01/29 02:23:04;;;;;;;34.73;19.43;;;;;;;-1.20;100.00;98455.85;1636513;86;21062;-68
2022/01/29 02:25:46;;;;;;;31.00;17.73;;;;;;;-1.18;100.00;98456.55;1636915;86;21098;-68
2022/01/29 02:28:22;;;;;;;32.80;19.07;;;;;;;-1.15;100.00;98458.11;1609777;89;21067;-68
2022/01/29 02:31:00;;;;;;;30.70;17.87;;;;;;;-1.15;100.00;98458.94;1609797;89;21567;-68
2022/01/29 02:33:26;;;;;;;29.33;17.10;;;;;;;-1.12;100.00;98454.33;1588753;89;21076;-69
2022/01/29 02:35:54;;;;;;;29.77;16.80;;;;;;;-1.12;100.00;98452.52;1609762;88;21113;-69
2022/01/29 02:38:23;;;;;;;30.50;16.87;;;;;;;-1.10;100.00;98450.55;1588913;89;21110;-69
2022/01/29 02:40:59;;;;;;;30.43;17.67;;;;;;;-1.08;100.00;98450.42;1588043;89;21092;-69
2022/01/29 02:43:32;;;;;;;31.57;17.20;;;;;;;-1.07;100.00;98449.46;1565831;90;21084;-68
2022/01/29 02:46:05;;;;;;;28.73;16.23;;;;;;;-1.07;100.00;98452.95;1534679;92;21797;-67
2022/01/29 02:48:28;;;;;;;29.33;15.73;;;;;;;-1.05;100.00;98452.81;1531925;92;21098;-68
2022/01/29 02:50:55;;;;;;;29.97;16.43;;;;;;;-1.05;100.00;98449.66;1531757;92;21091;-68
2022/01/29 02:53:22;;;;;;;30.67;16.93;;;;;;;-1.04;100.00;98453.18;1531869;92;21114;-68
2022/01/29 02:55:49;;;;;;;28.90;15.70;;;;;;;-1.04;100.00;98454.01;1551342;92;21142;-68
2022/01/29 02:58:16;;;;;;;31.00;16.70;;;;;;;-1.02;100.00;98456.03;1531966;92;21595;-68
2022/01/29 03:00:43;;;;;;;30.33;16.80;;;;;;;-1.03;100.00;98460.14;1551430;92;21605;-67
2022/01/29 03:03:10;;;;;;;28.27;16.47;;;;;;;-1.03;100.00;98458.81;1531614;92;21583;-69
2022/01/29 03:05:38;;;;;;;28.80;17.00;;;;;;;-1.03;100.00;98460.14;1531853;92;21643;-68
2022/01/29 03:08:05;;;;;;;31.27;17.70;;;;;;;-1.02;100.00;98460.51;1531797;92;21679;-69
2022/01/29 03:10:32;;;;;;;29.10;15.87;;;;;;;-1.03;100.00;98454.84;1551278;92;21143;-69
2022/01/29 03:13:00;;;;;;;28.10;16.33;;;;;;;-1.02;100.00;98452.55;1571767;90;21069;-69
2022/01/29 03:15:27;;;;;;;28.10;15.60;;;;;;;-1.03;100.00;98449.53;1576686;91;21118;-68
2022/01/29 03:17:56;;;;;;;28.90;16.50;;;;;;;-1.03;100.00;98451.69;1545603;90;21114;-68
2022/01/29 03:20:23;;;;;;;28.90;16.37;;;;;;;-1.05;100.00;98447.51;1530115;94;21122;-69
2022/01/29 03:22:50;;;;;;;25.80;15.00;;;;;;;-1.06;100.00;98446.67;1511130;94;21165;-69
2022/01/29 03:25:17;;;;;;;28.23;15.27;;;;;;;-1.06;100.00;98450.66;1550469;90;21057;-69
2022/01/29 03:27:44;;;;;;;29.77;17.50;;;;;;;-1.06;100.00;98454.64;1561651;92;21093;-69
2022/01/29 03:30:12;;;;;;;27.80;16.30;;;;;;;-1.04;100.00;98461.14;1561715;92;21085;-69
2022/01/29 03:32:39;;;;;;;31.27;16.07;;;;;;;-1.07;100.00;98460.08;1561036;92;21077;-69
2022/01/29 03:35:07;;;;;;;27.87;16.17;;;;;;;-1.07;100.00;98463.56;1561643;92;21050;-69
2022/01/29 03:37:34;;;;;;;26.97;15.10;;;;;;;-1.08;100.00;98471.19;1561717;92;21560;-69
2022/01/29 03:40:05;;;;;;;28.83;15.33;;;;;;;-1.05;100.00;98458.12;1551149;92;21616;-68
2022/01/29 03:42:36;;;;;;;26.33;14.47;;;;;;;-1.04;100.00;98459.81;1519098;93;21085;-68
2022/01/29 03:45:02;;;;;;;27.33;15.20;;;;;;;-1.05;100.00;98459.45;1521619;93;21077;-69
2022/01/29 03:47:31;;;;;;;27.53;15.53;;;;;;;-1.06;100.00;98461.73;1538447;92;21165;-67
2022/01/29 03:49:58;;;;;;;27.00;15.27;;;;;;;-1.07;100.00;98464.05;1616411;86;21081;-68
2022/01/29 03:52:25;;;;;;;28.43;16.23;;;;;;;-1.08;100.00;98461.03;1675318;85;21022;-67
2022/01/29 03:54:52;;;;;;;27.10;15.80;;;;;;;-1.05;100.00;98466.08;1675704;85;21015;-67
2022/01/29 03:57:19;;;;;;;24.40;14.60;;;;;;;-1.04;100.00;98470.42;1665998;86;21046;-68
2022/01/29 03:59:46;;;;;;;25.13;14.87;;;;;;;-1.03;100.00;98471.59;1674830;85;21578;-68
2022/01/29 04:02:13;;;;;;;26.73;15.20;;;;;;;-1.01;100.00;98472.31;1666126;86;21480;-69
2022/01/29 04:04:40;;;;;;;26.53;15.50;;;;;;;-0.99;100.00;98468.20;1675981;85;21507;-67
2022/01/29 04:07:11;;;;;;;25.83;14.60;;;;;;;-1.00;100.00;98471.32;1675541;85;21018;-67
2022/01/29 04:09:36;;;;;;;26.87;14.70;;;;;;;-0.98;100.00;98475.17;1653178;85;21067;-69
2022/01/29 04:12:05;;;;;;;24.87;14.33;;;;;;;-0.97;100.00;98474.20;1695528;83;21066;-69
2022/01/29 04:14:37;;;;;;;25.37;14.47;;;;;;;-0.92;100.00;98472.45;1721642;83;21114;-69
2022/01/29 04:17:01;;;;;;;23.70;14.47;;;;;;;-0.92;100.00;98471.98;1697254;83;21505;-68
2022/01/29 04:19:28;;;;;;;24.73;14.20;;;;;;;-0.91;100.00;98471.49;1722076;83;21066;-67
2022/01/29 04:21:55;;;;;;;23.03;13.80;;;;;;;-0.89;100.00;98473.02;1721732;83;21027;-67
2022/01/29 04:24:22;;;;;;;24.60;14.73;;;;;;;-0.91;100.00;98465.69;1720107;83;21039;-69
2022/01/29 04:26:49;;;;;;;27.03;15.17;;;;;;;-0.91;100.00;98467.02;1721274;83;21106;-69
2022/01/29 04:29:16;;;;;;;25.60;15.10;;;;;;;-0.91;100.00;98467.02;1721710;83;21023;-69
2022/01/29 04:34:19;;;;;;;23.80;14.33;;;;;;;-0.91;100.00;98450.27;1721659;83;21127;-68
2022/01/29 04:36:46;;;;;;;23.30;14.10;;;;;;;-0.91;100.00;98444.95;1692503;83;21026;-68
2022/01/29 04:39:13;;;;;;;26.57;15.53;;;;;;;-0.91;100.00;98429.86;1666477;86;21061;-68
2022/01/29 04:41:40;;;;;;;24.57;14.10;;;;;;;-0.92;100.00;98427.34;1651951;86;21081;-69
2022/01/29 04:44:07;;;;;;;25.20;14.67;;;;;;;-0.91;100.00;98415.77;1666804;86;21495;-68
2022/01/29 04:46:34;;;;;;;26.37;15.07;;;;;;;-0.90;100.00;98406.34;1679239;84;21117;-68
2022/01/29 04:49:01;;;;;;;26.33;14.93;;;;;;;-0.87;100.00;98402.06;1689950;84;21113;-68
2022/01/29 04:51:29;;;;;;;23.73;14.10;;;;;;;-0.83;100.00;98396.02;1686862;85;21086;-69
2022/01/29 04:53:56;;;;;;;25.97;16.00;;;;;;;-0.83;100.00;98388.06;1687166;84;21065;-69
2022/01/29 04:56:23;;;;;;;24.50;14.50;;;;;;;-0.87;100.00;98390.13;1679615;84;21042;-68
2022/01/29 04:58:51;;;;;;;25.50;15.73;;;;;;;-0.90;100.00;98385.58;1678337;84;21106;-68
2022/01/29 05:01:18;;;;;;;25.33;14.77;;;;;;;-0.89;100.00;98368.70;1686755;85;21133;-69
2022/01/29 05:03:45;;;;;;;24.57;14.50;;;;;;;-0.88;100.00;98360.60;1687247;85;21030;-68
2022/01/29 05:06:19;;;;;;;27.63;15.87;;;;;;;-0.86;100.00;98324.64;1677581;84;21587;-68
2022/01/29 05:08:48;;;;;;;26.03;14.57;;;;;;;-0.86;100.00;98276.38;1679432;84;21114;-68
2022/01/29 05:11:16;;;;;;;23.90;14.57;;;;;;;-0.86;100.00;98251.17;1688288;85;21073;-69
2022/01/29 05:13:43;;;;;;;24.40;14.37;;;;;;;-0.85;100.00;98174.57;1669307;86;21036;-68
2022/01/29 05:27:07;;;;;;;28.77;16.60;;;;;;;-0.81;100.00;97332.63;1647451;86;21080;-69
2022/01/29 05:29:34;;;;;;;26.93;17.03;;;;;;;-0.83;100.00;97340.74;1648732;86;21092;-68
2022/01/29 05:32:05;;;;;;;27.10;16.30;;;;;;;-0.84;100.00;97348.86;1668216;85;21096;-68
2022/01/29 05:34:33;;;;;;;28.57;17.80;;;;;;;-0.84;100.00;97353.66;1668912;86;21048;-68
2022/01/29 05:37:02;;;;;;;27.87;16.17;;;;;;;-0.83;100.00;97359.31;1681182;85;21045;-69
2022/01/29 05:39:29;;;;;;;28.37;16.70;;;;;;;-0.79;100.00;97367.77;1678136;84;21069;-69
2022/01/29 05:41:56;;;;;;;25.50;15.20;;;;;;;-0.79;100.00;97370.42;1678872;84;21010;-71
2022/01/29 05:44:23;;;;;;;28.60;15.73;;;;;;;-0.78;100.00;97368.09;1679306;84;21002;-70
2022/01/29 05:46:51;;;;;;;28.13;16.37;;;;;;;-0.77;100.00;97372.41;1687537;85;21050;-68
2022/01/29 05:49:18;;;;;;;26.10;14.37;;;;;;;-0.78;100.00;97374.25;1678848;84;21582;-69
2022/01/29 05:51:45;;;;;;;25.53;15.07;;;;;;;-0.76;100.00;97384.70;1679250;84;21503;-67
2022/01/29 05:54:12;;;;;;;26.33;15.47;;;;;;;-0.73;100.00;97387.51;1679407;84;21038;-69
2022/01/29 05:56:39;;;;;;;25.83;15.20;;;;;;;-0.72;100.00;97387.34;1686717;84;21097;-67
2022/01/29 05:59:07;;;;;;;22.63;13.93;;;;;;;-0.70;100.00;97391.98;1686741;84;21037;-69
2022/01/29 06:01:34;;;;;;;23.97;14.53;;;;;;;-0.66;100.00;97389.83;1678683;84;21579;-69
2022/01/29 06:04:01;;;;;;;23.03;12.90;;;;;;;-0.65;100.00;97395.48;1685107;84;21082;-69
2022/01/29 06:06:28;;;;;;;24.07;13.57;;;;;;;-0.61;100.00;97388.34;1689271;85;21074;-69
2022/01/29 06:08:55;;;;;;;21.83;12.63;;;;;;;-0.61;100.00;97394.97;1678686;84;20998;-69
2022/01/29 06:11:24;;;;;;;20.90;12.50;;;;;;;-0.56;100.00;97399.80;1675854;84;21070;-69
2022/01/29 06:13:51;;;;;;;21.80;12.70;;;;;;;-0.55;100.00;97398.78;1657274;86;21070;-70
2022/01/29 06:16:18;;;;;;;23.67;12.83;;;;;;;-0.52;100.00;97398.47;1664938;85;20989;-69
2022/01/29 06:18:46;;;;;;;28.80;15.67;;;;;;;-0.47;100.00;97401.96;1671467;86;21105;-70
2022/01/29 06:21:14;;;;;;;25.40;14.03;;;;;;;-0.47;100.00;97404.11;1669225;84;21029;-69
2022/01/29 06:23:43;;;;;;;21.37;12.50;;;;;;;-0.45;100.00;97406.60;1663773;85;21065;-68
2022/01/29 06:26:11;;;;;;;46.57;24.77;;;;;;;-0.43;100.00;97409.91;1654294;85;21053;-69
2022/01/29 06:28:38;;;;;;;25.00;14.40;;;;;;;-0.41;100.00;97411.91;1650769;86;21010;-71
2022/01/29 06:31:09;;;;;;;23.20;14.13;;;;;;;-0.40;100.00;97403.77;1658417;86;21531;-70
2022/01/29 06:33:36;;;;;;;19.70;11.77;;;;;;;-0.41;100.00;97412.75;1660529;86;21555;-69
2022/01/29 06:36:03;;;;;;;18.07;10.60;;;;;;;-0.39;100.00;97407.25;1659377;85;21077;-70
2022/01/29 06:38:31;;;;;;;20.93;12.70;;;;;;;-0.36;100.00;97408.77;1690444;85;21061;-70
2022/01/29 06:40:58;;;;;;;17.93;10.60;;;;;;;-0.35;100.00;97415.71;1687717;85;21101;-71
2022/01/29 06:43:26;;;;;;;16.83;9.90;;;;;;;-0.34;100.00;97414.73;1678281;84;21562;-70
2022/01/29 06:45:53;;;;;;;16.50;9.57;;;;;;;-0.33;100.00;97420.39;1677355;84;21069;-70
2022/01/29 06:48:20;;;;;;;16.97;9.70;;;;;;;-0.34;100.00;97420.86;1691400;84;21101;-68
2022/01/29 06:50:48;;;;;;;20.20;10.50;;;;;;;-0.36;100.00;97420.20;1697577;84;21112;-69
2022/01/29 06:53:15;;;;;;;18.77;10.50;;;;;;;-0.34;100.00;97425.35;1696120;84;21070;-69
2022/01/29 06:55:41;;;;;;;20.27;11.07;;;;;;;-0.33;100.00;97430.50;1697756;84;21053;-70
2022/01/29 06:58:10;;;;;;;17.57;9.93;;;;;;;-0.30;100.00;97428.85;1696059;85;21086;-71
2022/01/29 07:00:37;;;;;;;19.53;10.57;;;;;;;-0.26;100.00;97428.02;1716673;82;21096;-70
2022/01/29 07:03:04;;;;;;;18.73;11.00;;;;;;;-0.25;100.00;97429.66;1714063;83;21081;-70
2022/01/29 07:05:31;;;;;;;20.57;12.93;;;;;;;-0.22;100.00;97431.48;1729392;82;21049;-69
2022/01/29 07:07:58;;;;;;;26.10;18.67;;;;;;;-0.20;100.00;97441.95;1701149;83;21074;-69
2022/01/29 07:10:26;;;;;;;18.57;11.47;;;;;;;-0.15;100.00;97444.94;1701124;83;21055;-71
2022/01/29 07:12:53;;;;;;;16.50;10.03;;;;;;;-0.14;100.00;97445.28;1705731;84;21614;-70
2022/01/29 07:15:20;;;;;;;15.40;9.00;;;;;;;-0.11;100.00;97448.91;1709600;84;21052;-68
2022/01/29 07:17:47;;;;;;;17.13;10.80;;;;;;;-0.07;100.00;97452.05;1724720;83;21144;-68
2022/01/29 07:20:14;;;;;;;17.13;10.37;;;;;;;-0.04;100.00;97446.42;1674023;82;21053;-70
2022/01/29 07:22:41;;;;;;;22.73;13.83;;;;;;;-0.02;100.00;97446.59;1731067;83;21061;-70
2022/01/29 07:25:09;;;;;;;24.73;15.73;;;;;;;0.03;100.00;97447.91;1701109;83;21057;-69
2022/01/29 07:27:37;;;;;;;17.93;10.57;;;;;;;0.04;100.00;97452.24;1733668;82;21008;-68
2022/01/29 07:30:06;;;;;;;20.10;11.60;;;;;;;0.10;100.00;97456.88;1708196;83;21475;-70
2022/01/29 07:32:33;;;;;;;20.23;11.93;;;;;;;0.13;100.00;97464.01;1707945;83;21050;-70
2022/01/29 07:35:00;;;;;;;15.70;9.70;;;;;;;0.14;100.00;97463.02;1715776;84;20966;-71
2022/01/29 07:37:27;;;;;;;14.27;8.50;;;;;;;0.16;100.00;97465.48;1680716;83;21522;-70
2022/01/29 07:39:54;;;;;;;16.60;10.53;;;;;;;0.14;100.00;97474.98;1678227;85;21228;-69
2022/01/29 07:42:21;;;;;;;14.13;8.37;;;;;;;0.15;100.00;97475.30;1686173;85;21117;-70
2022/01/29 07:44:48;;;;;;;21.77;10.17;;;;;;;0.17;100.00;97485.77;1685785;85;21022;-70
2022/01/29 07:47:16;;;;;;;21.77;10.40;;;;;;;0.22;100.00;97484.77;1685221;85;21156;-70
2022/01/29 07:49:43;;;;;;;19.57;9.43;;;;;;;0.29;100.00;97480.94;1681082;85;21575;-70
2022/01/29 07:52:10;;;;;;;20.20;9.77;;;;;;;0.30;100.00;97487.42;1656701;85;21532;-69
2022/01/29 07:54:38;;;;;;;22.93;11.00;;;;;;;0.30;100.00;97491.88;1624999;87;21050;-71
2022/01/29 07:57:05;;;;;;;16.60;8.77;;;;;;;0.31;100.00;97510.33;1637900;87;21023;-70
2022/01/29 07:59:32;;;;;;;11.30;7.23;;;;;;;0.35;100.00;97509.02;1639089;86;21054;-70
2022/01/29 08:01:59;;;;;;;11.40;7.50;;;;;;;0.41;100.00;97517.28;1647838;86;21073;-68
2022/01/29 08:04:27;;;;;;;11.20;7.07;;;;;;;0.45;100.00;97514.64;1629327;86;21553;-70
2022/01/29 08:06:54;;;;;;;10.57;6.73;;;;;;;0.48;100.00;97527.10;1652933;87;21054;-72
2022/01/29 08:09:21;;;;;;;14.67;8.00;;;;;;;0.48;100.00;97527.58;1650354;86;21074;-70
2022/01/29 08:11:49;;;;;;;23.30;11.00;;;;;;;0.51;100.00;97530.76;1644705;85;21055;-70
2022/01/29 08:14:16;;;;;;;40.67;19.60;;;;;;;0.53;100.00;97535.88;1635002;88;21110;-69
2022/01/29 08:16:43;;;;;;;26.67;12.13;;;;;;;0.54;100.00;97540.22;1628883;86;21495;-70
2022/01/29 08:19:10;;;;;;;34.27;14.20;;;;;;;0.54;100.00;97548.19;1684193;84;21570;-70
2022/01/29 08:21:38;;;;;;;24.73;11.60;;;;;;;0.53;100.00;97551.84;1678065;85;21073;-70
2022/01/29 08:24:07;;;;;;;39.60;18.27;;;;;;;0.54;100.00;97559.65;1658757;85;21034;-70
2022/01/29 08:26:34;;;;;;;26.63;13.20;;;;;;;0.53;100.00;97565.13;1631694;86;21007;-69
2022/01/29 08:29:01;;;;;;;23.87;10.60;;;;;;;0.56;100.00;97565.62;1630833;86;21038;-69
2022/01/29 08:31:28;;;;;;;32.07;14.50;;;;;;;0.61;100.00;97568.30;1601187;88;21061;-69
2022/01/29 08:33:56;;;;;;;30.33;12.90;;;;;;;0.64;100.00;97576.77;1600888;88;21131;-69
2022/01/29 08:36:22;;;;;;;36.00;15.70;;;;;;;0.69;100.00;97575.77;1600911;88;21006;-71
2022/01/29 08:38:49;;;;;;;32.20;13.80;;;;;;;0.76;100.00;97570.58;1633890;87;21036;-70
2022/01/29 08:41:17;;;;;;;29.63;11.63;;;;;;;0.80;100.00;97583.05;1595584;88;21105;-70
2022/01/29 08:43:46;;;;;;;17.83;6.90;;;;;;;0.81;100.00;97586.87;1611372;88;21586;-70
2022/01/29 08:46:13;;;;;;;25.87;9.93;;;;;;;0.78;100.00;97600.53;1624064;87;21061;-69
2022/01/29 08:48:40;;;;;;;38.10;13.83;;;;;;;0.78;100.00;97605.85;1629740;87;21666;-69
2022/01/29 08:51:07;;;;;;;48.03;17.53;;;;;;;0.79;100.00;97620.80;1631699;86;21571;-70
2022/01/29 08:53:34;;;;;;;40.77;14.70;;;;;;;0.80;100.00;97633.11;1612236;87;21032;-70
2022/01/29 08:56:02;;;;;;;38.67;12.93;;;;;;;0.76;100.00;97642.41;1633401;87;21057;-69
2022/01/29 08:58:29;;;;;;;23.87;9.10;;;;;;;0.68;100.00;97651.23;1641543;87;21075;-70
2022/01/29 09:00:56;;;;;;;35.73;13.47;;;;;;;0.68;100.00;97657.88;1590717;88;21029;-68
2022/01/29 09:03:23;;;;;;;41.07;15.70;;;;;;;0.71;100.00;97667.38;1615782;87;21060;-70
2022/01/29 09:05:50;;;;;;;35.50;15.07;;;;;;;0.74;100.00;97680.31;1637817;86;21071;-70
2022/01/29 09:08:17;;;;;;;43.13;22.93;;;;;;;0.82;100.00;97689.64;1630455;86;21036;-70
2022/01/29 09:10:44;;;;;;;22.87;11.13;;;;;;;0.81;100.00;97690.63;1614890;87;21571;-69
2022/01/29 09:13:14;;;;;;;19.17;8.27;;;;;;;0.80;100.00;97703.61;1643992;86;21543;-69
2022/01/29 09:15:41;;;;;;;15.23;7.00;;;;;;;0.78;100.00;97715.40;1608979;86;21568;-71
2022/01/29 09:18:09;;;;;;;23.07;10.20;;;;;;;0.74;100.00;97721.08;1599028;87;21108;-68
2022/01/29 09:20:37;;;;;;;25.10;11.20;;;;;;;0.73;100.00;97736.69;1607665;88;21517;-69
2022/01/29 09:23:08;;;;;;;52.10;25.07;;;;;;;0.73;100.00;97738.02;1633749;84;21126;-69
2022/01/29 09:25:38;;;;;;;41.87;17.73;;;;;;;0.77;100.00;97749.67;1629411;85;21050;-70
2022/01/29 09:28:05;;;;;;;60.87;20.87;;;;;;;0.78;100.00;97754.83;1636728;87;21019;-70
2022/01/29 09:30:33;;;;;;;60.43;21.53;;;;;;;0.80;100.00;97754.63;1616922;88;21065;-70
2022/01/29 09:33:00;;;;;;;40.10;16.10;;;;;;;0.79;100.00;97764.95;1616367;88;21097;-70
2022/01/29 09:35:27;;;;;;;62.83;23.53;;;;;;;0.77;100.00;97778.93;1640134;86;21587;-71
2022/01/29 09:37:54;;;;;;;29.40;13.93;;;;;;;0.72;100.00;97781.56;1643665;86;21055;-69
2022/01/29 09:40:22;;;;;;;18.77;8.57;;;;;;;0.70;100.00;97792.88;1650315;86;21218;-70
2022/01/29 09:42:51;;;;;;;23.43;11.07;;;;;;;0.69;100.00;97801.86;1661749;86;21031;-70
2022/01/29 09:45:21;;;;;;;14.90;6.97;;;;;;;0.67;100.00;97809.14;1657726;86;21101;-69
2022/01/29 09:47:49;;;;;;;11.97;6.73;;;;;;;0.63;100.00;97825.11;1668527;86;21041;-70
2022/01/29 09:50:19;;;;;;;7.77;5.00;;;;;;;0.60;100.00;97839.23;1670284;85;21098;-70
2022/01/29 09:52:46;;;;;;;7.60;5.13;;;;;;;0.59;100.00;97841.56;1646210;84;21018;-69
2022/01/29 09:55:14;;;;;;;5.60;3.93;;;;;;;0.61;100.00;97847.05;1666234;85;21520;-69
2022/01/29 09:57:41;;;;;;;6.90;4.30;;;;;;;0.64;100.00;97848.54;1672214;85;21486;-70
2022/01/29 10:00:12;;;;;;;4.70;3.70;;;;;;;0.67;100.00;97858.36;1639780;86;21116;-69
2022/01/29 10:02:39;;;;;;;11.37;5.30;;;;;;;0.67;100.00;97865.52;1670372;85;21136;-69
2022/01/29 10:05:09;;;;;;;12.50;5.73;;;;;;;0.68;100.00;97878.66;1648594;86;21094;-69
2022/01/29 10:07:37;;;;;;;10.20;5.00;;;;;;;0.66;100.00;97879.83;1674592;84;21102;-70
2022/01/29 10:10:12;;;;;;;11.00;5.30;;;;;;;0.64;100.00;97885.30;1675714;85;21579;-70
2022/01/29 10:12:39;;;;;;;10.20;5.30;;;;;;;0.65;100.00;97885.62;1671355;84;21033;-69
2022/01/29 10:15:08;;;;;;;7.77;4.67;;;;;;;0.61;100.00;97894.92;1648252;85;21513;-70
2022/01/29 10:17:46;;;;;;;6.17;3.70;;;;;;;0.57;100.00;97906.88;1651915;86;21041;-69
2022/01/29 10:20:28;;;;;;;5.87;3.80;;;;;;;0.56;100.00;97918.50;1666488;85;21069;-69
2022/01/29 10:23:02;;;;;;;9.30;4.37;;;;;;;0.54;100.00;97926.64;1649011;87;21061;-70
2022/01/29 10:25:32;;;;;;;18.23;7.07;;;;;;;0.53;100.00;97930.78;1669431;83;21565;-70
2022/01/29 10:28:20;;;;;;;14.03;5.63;;;;;;;0.52;100.00;97945.08;1691069;84;21021;-68
2022/01/29 10:31:03;;;;;;;14.17;6.10;;;;;;;0.50;100.00;97946.57;1672552;84;21510;-69
2022/01/29 10:33:45;;;;;;;15.63;5.73;;;;;;;0.48;100.00;97948.56;1675156;84;21586;-70
2022/01/29 10:36:18;;;;;;;12.33;6.03;;;;;;;0.50;100.00;97952.39;1683636;84;21019;-69
2022/01/29 10:38:53;;;;;;;14.47;6.70;;;;;;;0.48;100.00;97949.89;1652778;86;21113;-69
2022/01/29 10:41:30;;;;;;;46.07;18.57;;;;;;;0.46;100.00;97962.52;1635163;86;21681;-69
2022/01/29 10:46:55;;;;;;;45.88;21.33;;;;;;;0.42;100.00;97979.75;1633733;88;21566;-68
2022/01/29 10:49:30;;;;;;;25.53;12.60;;;;;;;0.43;100.00;97977.95;1633120;87;21107;-69
2022/01/29 10:52:10;;;;;;;21.47;10.50;;;;;;;0.42;100.00;97986.91;1633945;88;21092;-69
2022/01/29 10:54:42;;;;;;;19.33;10.43;;;;;;;0.38;100.00;97985.88;1606883;89;21076;-69
2022/01/29 10:57:19;;;;;;;18.20;9.33;;;;;;;0.36;100.00;97998.50;1577568;90;21091;-69
2022/01/29 10:59:53;;;;;;;14.97;7.50;;;;;;;0.35;100.00;97996.85;1568859;90;21063;-71
2022/01/29 11:02:23;;;;;;;15.77;7.60;;;;;;;0.30;100.00;98007.59;1540403;93;21077;-70
2022/01/29 11:04:50;;;;;;;16.73;8.80;;;;;;;0.25;100.00;98018.70;1552433;92;21050;-69
2022/01/29 11:07:19;;;;;;;19.70;9.77;;;;;;;0.21;100.00;98013.34;1578655;89;21097;-69
2022/01/29 11:09:50;;;;;;;12.00;6.90;;;;;;;0.17;100.00;98022.62;1538941;93;21101;-71
2022/01/29 11:12:27;;;;;;;9.73;5.33;;;;;;;0.20;100.00;98024.16;1583252;90;21076;-70
2022/01/29 11:14:58;;;;;;;7.83;4.90;;;;;;;0.17;100.00;98028.77;1586594;90;21115;-68
2022/01/29 11:17:27;;;;;;;7.90;5.07;;;;;;;0.17;100.00;98021.29;1586623;90;21148;-65
2022/01/29 11:19:54;;;;;;;8.60;4.33;;;;;;;0.18;100.00;98027.78;1569105;90;21111;-65
2022/01/29 11:22:35;;;;;;;6.77;4.47;;;;;;;0.19;100.00;98035.25;1568815;90;21134;-70
2022/01/29 11:25:18;;;;;;;9.73;5.30;;;;;;;0.20;100.00;98037.44;1578248;90;21096;-71
2022/01/29 11:27:45;;;;;;;8.35;4.60;;;;;;;0.22;100.00;98035.46;1586789;90;21074;-69
2022/01/29 11:30:14;;;;;;;6.13;4.50;;;;;;;0.21;100.00;98031.95;1586400;90;21564;-68
2022/01/29 11:32:52;;;;;;;7.90;4.60;;;;;;;0.24;100.00;98028.98;1569246;90;21107;-70
2022/01/29 11:35:28;;;;;;;5.93;4.07;;;;;;;0.25;100.00;98042.63;1579112;90;21048;-70
2022/01/29 11:38:08;;;;;;;8.00;4.50;;;;;;;0.26;100.00;98043.45;1570962;91;21065;-69
2022/01/29 11:40:58;;;;;;;6.87;4.27;;;;;;;0.25;100.00;98037.31;1576262;90;21163;-69